CYQK

Kenora Airport

Code ICAO CYQK
Code IATA YQK
Nom Kenora Airport
Emplacement Kenora, Ontario, CA
Élévation 1332 pieds / 406 mètres
Latitude 49.78829956
Longitude -94.36309814
METAR CYQK 171000Z 08003KT 020V140 15SM FEW040 FEW090 02/01 A3005 RMK SC1AC1 SLP190
Informations extras Afficher NOTAMS
Afficher cartes
Piste Longueur Largeur Surface Élévation
08 5800 ft 150 ft ASP 1325 ft
26 5800 ft 150 ft ASP 1332 ft